Time;durP1;ratioP1;P1;durP2;ratioP2;P2;SDS_P1;SDS_P2;PMS_P1;PMS_P2;Temp;Humidity;BMP_temperature;BMP_pressure;BME280_temperature;BME280_humidity;BME280_pressure;Samples;Min_cycle;Max_cycle;Signal;HPM_P1;HPM_P2
2021/04/10 00:02:13;;;;;;;21.55;11.38;;;;;;;1.55;100.00;97411.53;5069252;28;20575;-77
2021/04/10 00:04:42;;;;;;;26.20;11.05;;;;;;;1.60;100.00;97406.19;5070513;28;20812;-77
2021/04/10 00:07:09;;;;;;;22.92;11.63;;;;;;;1.60;100.00;97398.19;5069252;28;20060;-77
2021/04/10 00:09:35;;;;;;;21.42;11.02;;;;;;;1.61;100.00;97397.94;5066703;28;20044;-77
2021/04/10 00:12:01;;;;;;;30.20;12.50;;;;;;;1.42;100.00;97396.78;5050632;28;20087;-77
2021/04/10 00:14:28;;;;;;;29.80;13.00;;;;;;;1.43;100.00;97389.59;5050617;28;20044;-77
2021/04/10 00:16:54;;;;;;;27.15;12.75;;;;;;;1.46;100.00;97397.88;5031652;28;20148;-77
2021/04/10 00:19:21;;;;;;;25.23;12.13;;;;;;;1.43;100.00;97394.94;5069559;28;20511;-77
2021/04/10 00:21:47;;;;;;;28.30;13.10;;;;;;;1.23;100.00;97387.69;5069066;28;20044;-77
2021/04/10 00:24:13;;;;;;;27.52;13.90;;;;;;;1.30;100.00;97395.41;5071898;28;20165;-77
2021/04/10 00:26:39;;;;;;;37.13;14.63;;;;;;;1.34;100.00;97389.31;5071325;28;20052;-77
2021/04/10 00:29:05;;;;;;;32.25;14.38;;;;;;;1.45;100.00;97390.94;5070125;28;20055;-77
2021/04/10 00:31:33;;;;;;;26.13;12.63;;;;;;;1.57;100.00;97394.19;5069816;28;20040;-77
2021/04/10 00:34:00;;;;;;;22.63;11.15;;;;;;;1.64;100.00;97397.41;5069870;28;20318;-77
2021/04/10 00:36:26;;;;;;;20.65;11.05;;;;;;;1.74;100.00;97388.59;5069718;28;20074;-78
2021/04/10 00:38:52;;;;;;;25.60;11.63;;;;;;;1.88;100.00;97368.38;5069081;28;20044;-76
2021/04/10 00:41:20;;;;;;;29.20;12.70;;;;;;;1.97;100.00;97381.97;5071607;28;20061;-76
2021/04/10 00:43:46;;;;;;;25.05;12.23;;;;;;;2.11;100.00;97375.84;5072050;28;20211;-77
2021/04/10 00:46:12;;;;;;;24.98;11.80;;;;;;;2.23;100.00;97378.22;5070520;28;20048;-77
2021/04/10 00:48:38;;;;;;;27.80;12.27;;;;;;;2.33;100.00;97364.88;5071627;28;20484;-78
2021/04/10 00:51:05;;;;;;;33.42;13.40;;;;;;;2.36;100.00;97353.66;5069012;28;20040;-78
2021/04/10 00:53:33;;;;;;;30.52;12.70;;;;;;;2.39;100.00;97350.47;5070105;28;20052;-77
2021/04/10 00:56:04;;;;;;;28.95;13.55;;;;;;;2.45;100.00;97354.72;5068657;28;20527;-77
2021/04/10 00:58:31;;;;;;;20.35;10.93;;;;;;;2.57;100.00;97347.22;5070869;28;20052;-76
2021/04/10 01:00:57;;;;;;;25.60;11.95;;;;;;;2.59;100.00;97339.72;5069380;28;20048;-77
2021/04/10 01:03:23;;;;;;;25.65;11.93;;;;;;;2.71;100.00;97342.91;5067809;28;20056;-77
2021/04/10 01:05:49;;;;;;;22.48;11.73;;;;;;;2.68;100.00;97329.28;5069503;28;20052;-76
2021/04/10 01:08:16;;;;;;;33.20;14.82;;;;;;;2.76;100.00;97334.09;5069298;28;20056;-77
2021/04/10 01:10:42;;;;;;;22.63;10.23;;;;;;;2.87;100.00;97325.75;5059118;28;20060;-77
2021/04/10 01:13:31;;;;;;;18.58;9.05;;;;;;;3.09;100.00;97326.22;5051071;28;20045;-78
2021/04/10 01:16:15;;;;;;;21.67;8.68;;;;;;;3.32;100.00;97323.94;5036215;28;20045;-76
2021/04/10 01:19:00;;;;;;;16.27;8.70;;;;;;;3.54;100.00;97322.47;5055454;28;20109;-78
2021/04/10 01:21:34;;;;;;;17.55;7.93;;;;;;;3.74;100.00;97324.25;5071235;28;20041;-77
2021/04/10 01:24:29;;;;;;;14.88;7.82;;;;;;;3.90;100.00;97319.56;5071508;28;20458;-77
2021/04/10 01:27:12;;;;;;;18.42;7.78;;;;;;;4.04;100.00;97307.13;5072564;28;20052;-78
2021/04/10 01:29:58;;;;;;;15.05;8.20;;;;;;;4.14;100.00;97305.16;5071034;28;20123;-78
2021/04/10 01:32:29;;;;;;;17.20;8.35;;;;;;;4.23;100.00;97294.66;5072319;28;20048;-78
2021/04/10 01:35:06;;;;;;;17.05;8.13;;;;;;;4.26;100.00;97286.03;5069444;28;20047;-76
2021/04/10 01:37:36;;;;;;;16.40;7.82;;;;;;;4.28;100.00;97283.88;5071154;28;20048;-76
2021/04/10 01:40:05;;;;;;;13.48;7.28;;;;;;;4.31;100.00;97294.03;5068201;28;20366;-77
2021/04/10 01:42:32;;;;;;;17.38;7.38;;;;;;;4.31;100.00;97289.44;5067795;28;20082;-77
2021/04/10 01:45:00;;;;;;;19.05;8.63;;;;;;;4.32;100.00;97287.56;5067618;28;20133;-78
2021/04/10 01:47:26;;;;;;;20.90;8.85;;;;;;;4.33;100.00;97281.16;5068558;28;20044;-76
2021/04/10 01:49:56;;;;;;;23.90;10.05;;;;;;;4.28;100.00;97299.97;5067434;28;20463;-76
2021/04/10 01:52:22;;;;;;;18.60;9.15;;;;;;;4.24;100.00;97283.63;5071378;28;20049;-78
2021/04/10 01:54:49;;;;;;;15.50;8.30;;;;;;;4.27;100.00;97296.47;5068856;28;20051;-76
2021/04/10 01:57:19;;;;;;;17.55;9.15;;;;;;;4.26;100.00;97289.50;5069110;28;20044;-78
2021/04/10 02:02:16;;;;;;;15.27;6.32;;;;;;;4.67;100.00;97281.84;5005689;28;20078;-76
2021/04/10 02:04:46;;;;;;;12.32;4.82;;;;;;;5.34;100.00;97269.97;5004124;28;20042;-76
2021/04/10 02:07:14;;;;;;;12.88;4.15;;;;;;;5.79;100.00;97257.78;5006040;28;20042;-76
2021/04/10 02:09:43;;;;;;;6.97;3.03;;;;;;;6.28;100.00;97268.78;5007863;28;20054;-76
2021/04/10 02:12:11;;;;;;;11.15;3.25;;;;;;;6.57;100.00;97265.84;5008026;28;20125;-76
2021/04/10 02:14:38;;;;;;;8.07;2.65;;;;;;;6.90;100.00;97267.34;5006221;28;20121;-75
2021/04/10 02:17:07;;;;;;;6.45;2.92;;;;;;;7.22;100.00;97265.63;5022526;28;20414;-77
2021/04/10 02:19:33;;;;;;;14.05;3.35;;;;;;;7.58;100.00;97257.53;5005581;28;20719;-76
2021/04/10 02:22:01;;;;;;;12.38;3.30;;;;;;;7.71;100.00;97257.50;5006477;28;20057;-76
2021/04/10 02:24:27;;;;;;;8.10;2.70;;;;;;;7.86;100.00;97262.53;5005383;28;20046;-76
2021/04/10 02:26:55;;;;;;;13.27;3.10;;;;;;;7.91;100.00;97265.09;5005707;28;20046;-76
2021/04/10 02:29:22;;;;;;;7.93;2.67;;;;;;;8.10;100.00;97262.22;5007156;28;20046;-76
2021/04/10 02:31:53;;;;;;;11.00;2.67;;;;;;;8.31;100.00;97260.59;5005836;28;20046;-76
2021/04/10 02:34:29;;;;;;;6.30;2.88;;;;;;;8.46;100.00;97256.72;5005803;28;20080;-76
2021/04/10 02:36:58;;;;;;;6.03;2.55;;;;;;;8.59;100.00;97253.91;5022375;28;20050;-76
2021/04/10 02:39:28;;;;;;;5.70;2.50;;;;;;;8.76;100.00;97245.09;5011423;28;20065;-76
2021/04/10 02:42:00;;;;;;;8.57;2.90;;;;;;;8.73;100.00;97245.72;5020004;28;20046;-76
2021/04/10 02:44:35;;;;;;;9.40;3.38;;;;;;;8.76;100.00;97245.09;5013421;28;20045;-77
2021/04/10 02:47:06;;;;;;;9.88;2.83;;;;;;;8.80;100.00;97234.50;4991295;28;20049;-77
2021/04/10 02:49:39;;;;;;;11.85;2.78;;;;;;;8.80;100.00;97224.47;5010454;28;20062;-76
2021/04/10 02:52:07;;;;;;;6.40;2.28;;;;;;;8.77;100.00;97238.63;5025032;28;20136;-77
2021/04/10 02:54:38;;;;;;;9.30;2.70;;;;;;;8.75;100.00;97233.50;5008995;28;20130;-76
2021/04/10 02:57:09;;;;;;;16.85;3.35;;;;;;;8.78;100.00;97238.28;5009022;28;20436;-76
2021/04/10 02:59:39;;;;;;;6.38;2.60;;;;;;;8.84;100.00;97240.84;5041395;28;20056;-76
2021/04/10 03:02:07;;;;;;;9.70;2.85;;;;;;;8.88;100.00;97228.34;5025342;28;20128;-77
2021/04/10 03:04:34;;;;;;;9.27;2.95;;;;;;;8.87;100.00;97224.03;5042313;28;20068;-76
2021/04/10 03:07:03;;;;;;;6.82;2.47;;;;;;;8.86;100.00;97225.13;5008982;28;20068;-76
2021/04/10 03:09:30;;;;;;;12.13;2.70;;;;;;;8.87;100.00;97234.81;5024204;28;20049;-76
2021/04/10 03:11:58;;;;;;;10.85;2.72;;;;;;;8.91;100.00;97241.97;4991178;28;20045;-76
2021/04/10 03:14:25;;;;;;;5.60;2.78;;;;;;;8.94;100.00;97243.25;5022237;28;20381;-76
2021/04/10 03:16:54;;;;;;;7.70;2.33;;;;;;;8.94;100.00;97251.34;5007821;28;20057;-76
2021/04/10 03:19:22;;;;;;;6.45;2.50;;;;;;;8.96;100.00;97246.44;5006657;28;20153;-76
2021/04/10 03:21:48;;;;;;;6.10;2.45;;;;;;;8.95;100.00;97248.34;5024642;28;20060;-76
2021/04/10 03:24:14;;;;;;;5.38;2.45;;;;;;;8.96;100.00;97243.72;5024936;28;20429;-76
2021/04/10 03:26:42;;;;;;;9.82;2.33;;;;;;;8.88;100.00;97244.53;5029305;28;20057;-76
2021/04/10 03:29:09;;;;;;;9.02;2.50;;;;;;;8.75;100.00;97240.81;5033979;28;20049;-77
2021/04/10 03:31:37;;;;;;;10.73;2.55;;;;;;;8.67;100.00;97231.56;5041768;28;20041;-76
2021/04/10 03:34:04;;;;;;;7.10;2.25;;;;;;;8.64;100.00;97239.50;5024996;28;20053;-76
2021/04/10 03:36:34;;;;;;;9.20;2.45;;;;;;;8.64;100.00;97247.59;5024811;28;20049;-76
2021/04/10 03:39:01;;;;;;;7.97;2.40;;;;;;;8.75;100.00;97248.91;5026072;28;20049;-77
2021/04/10 03:41:27;;;;;;;9.50;2.67;;;;;;;8.72;100.00;97250.31;5040347;28;20050;-77
2021/04/10 03:43:53;;;;;;;6.50;2.35;;;;;;;8.78;100.00;97259.06;5025645;28;20500;-76
2021/04/10 03:46:19;;;;;;;13.45;2.97;;;;;;;8.75;100.00;97248.91;5025531;28;20041;-77
2021/04/10 03:48:47;;;;;;;5.15;2.13;;;;;;;8.81;100.00;97242.25;5024725;28;20091;-76
2021/04/10 03:51:13;;;;;;;9.05;2.35;;;;;;;8.87;100.00;97235.63;5009939;28;20050;-76
2021/04/10 03:53:39;;;;;;;7.60;2.30;;;;;;;8.85;100.00;97235.16;5004616;28;20096;-77
2021/04/10 03:56:08;;;;;;;11.95;2.60;;;;;;;8.90;100.00;97240.41;5006455;28;20046;-76
2021/04/10 03:58:34;;;;;;;10.07;2.70;;;;;;;8.95;100.00;97229.47;5004732;28;20042;-76
2021/04/10 04:01:00;;;;;;;6.05;2.28;;;;;;;9.04;100.00;97241.06;5004680;28;20072;-76
2021/04/10 04:03:26;;;;;;;6.97;1.98;;;;;;;9.01;100.00;97236.28;5006056;28;20493;-75
2021/04/10 04:05:52;;;;;;;11.13;2.20;;;;;;;9.10;96.31;97249.81;5005032;28;20412;-76
2021/04/10 04:08:18;;;;;;;13.63;2.13;;;;;;;9.15;96.39;97250.47;4988760;28;20384;-75
2021/04/10 04:10:44;;;;;;;11.60;2.22;;;;;;;9.20;92.92;97238.72;5017494;28;20106;-76
2021/04/10 04:13:10;;;;;;;6.53;2.55;;;;;;;9.14;97.11;97237.25;5037944;28;20045;-76
2021/04/10 04:15:36;;;;;;;7.68;2.65;;;;;;;9.20;93.18;97250.31;5043998;28;20056;-76
2021/04/10 04:18:03;;;;;;;7.28;2.30;;;;;;;9.22;93.10;97256.19;5043845;28;20052;-76
2021/04/10 04:20:29;;;;;;;6.85;2.30;;;;;;;9.19;95.43;97242.50;5042889;28;20203;-77
2021/04/10 04:22:56;;;;;;;6.38;2.40;;;;;;;9.17;93.79;97242.84;5026948;28;20570;-76
2021/04/10 04:25:24;;;;;;;7.00;2.47;;;;;;;9.12;96.65;97234.88;5028335;28;20037;-76
2021/04/10 04:27:51;;;;;;;7.10;2.40;;;;;;;9.10;98.39;97239.00;5027180;28;20057;-77
2021/04/10 04:30:19;;;;;;;6.60;2.40;;;;;;;9.05;100.00;97244.56;5026793;28;20137;-76
2021/04/10 04:32:47;;;;;;;8.85;2.42;;;;;;;9.06;97.88;97248.88;5044159;28;20053;-77
2021/04/10 04:35:13;;;;;;;3.80;2.13;;;;;;;9.09;99.51;97245.50;5043726;28;20049;-76
2021/04/10 04:37:40;;;;;;;7.13;2.38;;;;;;;9.08;98.82;97257.44;5027345;28;20052;-76
2021/04/10 04:40:12;;;;;;;6.95;2.58;;;;;;;9.07;100.00;97269.34;5026544;28;20152;-76
2021/04/10 04:42:38;;;;;;;11.30;2.72;;;;;;;9.04;100.00;97278.06;5027347;28;20239;-76
2021/04/10 04:45:05;;;;;;;8.25;2.63;;;;;;;8.88;100.00;97277.69;5028236;28;20765;-77
2021/04/10 04:47:32;;;;;;;6.50;2.33;;;;;;;8.85;100.00;97291.84;5026690;28;20075;-76
2021/04/10 04:50:00;;;;;;;6.93;2.50;;;;;;;8.77;100.00;97297.97;5027020;28;20104;-76
2021/04/10 04:52:30;;;;;;;8.10;2.75;;;;;;;8.81;100.00;97303.53;5027316;28;20045;-76
2021/04/10 04:54:57;;;;;;;8.77;2.80;;;;;;;8.91;100.00;97305.97;5027634;28;20049;-76
2021/04/10 04:57:23;;;;;;;12.52;2.85;;;;;;;8.97;100.00;97315.53;5009567;28;20519;-76
2021/04/10 04:59:51;;;;;;;9.80;2.92;;;;;;;8.77;100.00;97328.44;5029030;28;20136;-76
2021/04/10 05:02:18;;;;;;;10.18;3.03;;;;;;;8.49;100.00;97334.34;5034563;28;20136;-76
2021/04/10 05:04:44;;;;;;;10.68;3.08;;;;;;;8.25;100.00;97334.63;5027672;28;20061;-75
2021/04/10 05:07:10;;;;;;;11.35;3.15;;;;;;;7.95;100.00;97348.81;5027566;28;20053;-76
2021/04/10 05:09:37;;;;;;;11.98;3.40;;;;;;;7.75;100.00;97331.22;5024041;28;20065;-76
2021/04/10 05:12:07;;;;;;;19.27;7.22;;;;;;;7.65;100.00;97319.88;5025619;28;20409;-76
2021/04/10 05:14:33;;;;;;;13.15;6.72;;;;;;;7.56;100.00;97344.03;5027621;28;20046;-78
2021/04/10 05:16:59;;;;;;;10.32;3.97;;;;;;;7.38;100.00;97343.06;5042760;28;20041;-76
2021/04/10 05:19:26;;;;;;;8.45;3.83;;;;;;;7.15;100.00;97356.75;5025816;28;20136;-72
2021/04/10 05:21:53;;;;;;;11.38;4.28;;;;;;;6.97;100.00;97353.03;5024925;28;20060;-75
2021/04/10 05:24:20;;;;;;;10.80;5.00;;;;;;;6.84;100.00;97368.06;5027710;28;20041;-75
2021/04/10 05:26:48;;;;;;;12.43;4.97;;;;;;;6.66;100.00;97377.00;5042105;28;20137;-77
2021/04/10 05:29:14;;;;;;;11.82;4.82;;;;;;;6.55;100.00;97374.81;5027107;28;20523;-75
2021/04/10 05:31:40;;;;;;;10.32;4.70;;;;;;;6.41;100.00;97385.50;5015148;28;20046;-75
2021/04/10 05:34:07;;;;;;;12.77;5.40;;;;;;;6.32;100.00;97386.47;4995680;28;20129;-76
2021/04/10 05:36:33;;;;;;;10.43;5.32;;;;;;;6.20;100.00;97398.47;4995454;28;20042;-75
2021/04/10 05:38:59;;;;;;;11.35;5.28;;;;;;;6.12;100.00;97393.75;4994043;28;20046;-76
2021/04/10 05:41:29;;;;;;;11.65;6.03;;;;;;;6.12;100.00;97406.38;5004203;28;20045;-76
2021/04/10 05:43:56;;;;;;;11.45;6.50;;;;;;;6.06;100.00;97400.31;4993643;28;20073;-76
2021/04/10 05:46:23;;;;;;;12.45;6.97;;;;;;;6.01;100.00;97394.22;4995366;28;20628;-76
2021/04/10 05:48:49;;;;;;;18.90;6.90;;;;;;;6.04;100.00;97390.94;5003903;28;20052;-76
2021/04/10 05:51:16;;;;;;;16.67;6.85;;;;;;;6.02;100.00;97395.78;5001864;28;20481;-76
2021/04/10 05:53:44;;;;;;;14.65;6.97;;;;;;;5.97;100.00;97399.34;5019645;28;20045;-75
2021/04/10 05:56:11;;;;;;;17.45;6.57;;;;;;;5.97;100.00;97401.22;5041279;28;20053;-75
2021/04/10 05:58:41;;;;;;;14.48;7.60;;;;;;;5.99;100.00;97399.06;5024817;28;20056;-75
2021/04/10 06:01:07;;;;;;;19.77;8.40;;;;;;;6.07;100.00;97409.94;5025195;28;20045;-76
2021/04/10 06:03:33;;;;;;;17.05;8.00;;;;;;;6.14;100.00;97398.84;5040383;28;20041;-75
2021/04/10 06:06:02;;;;;;;16.80;7.85;;;;;;;6.15;100.00;97398.56;5041512;28;20054;-76
2021/04/10 06:08:29;;;;;;;17.25;8.07;;;;;;;6.17;100.00;97393.66;5026119;28;20049;-76
2021/04/10 06:10:56;;;;;;;17.42;8.20;;;;;;;6.24;100.00;97399.50;5012745;28;20057;-77
2021/04/10 06:13:22;;;;;;;19.75;8.80;;;;;;;6.28;100.00;97402.38;5006417;28;20041;-76
2021/04/10 06:15:49;;;;;;;15.98;8.75;;;;;;;6.34;100.00;97403.09;5021652;28;20050;-76
2021/04/10 06:18:17;;;;;;;18.98;9.25;;;;;;;6.44;100.00;97405.63;5006282;28;20050;-77
2021/04/10 06:20:43;;;;;;;21.90;8.90;;;;;;;6.52;100.00;97418.41;5005253;28;20452;-77
2021/04/10 06:23:11;;;;;;;16.63;9.15;;;;;;;6.50;100.00;97421.41;5005083;28;20074;-77
2021/04/10 06:25:37;;;;;;;19.35;9.05;;;;;;;6.54;100.00;97429.66;5006520;28;20136;-77
2021/04/10 06:28:04;;;;;;;17.42;9.88;;;;;;;6.48;100.00;97430.84;5006759;28;20068;-76
2021/04/10 06:30:32;;;;;;;19.67;10.02;;;;;;;6.60;100.00;97439.25;5006124;28;20080;-76
2021/04/10 06:32:58;;;;;;;23.27;10.68;;;;;;;6.77;100.00;97443.00;5006191;28;20052;-76
2021/04/10 06:35:25;;;;;;;22.42;10.75;;;;;;;6.76;100.00;97444.06;5004823;28;20065;-75
2021/04/10 06:37:51;;;;;;;25.52;10.15;;;;;;;6.68;100.00;97447.47;5006160;28;20041;-77
2021/04/10 06:40:18;;;;;;;24.35;10.82;;;;;;;6.59;100.00;97441.13;5004839;28;20112;-75
2021/04/10 06:42:44;;;;;;;20.23;10.32;;;;;;;6.55;100.00;97444.72;5006135;28;20124;-75
2021/04/10 06:45:10;;;;;;;20.38;10.68;;;;;;;6.59;100.00;97461.84;5004134;28;20682;-76
2021/04/10 06:47:37;;;;;;;21.40;11.05;;;;;;;6.60;100.00;97463.47;5004453;28;20041;-76
2021/04/10 06:50:05;;;;;;;23.13;11.65;;;;;;;6.60;100.00;97456.19;5007789;28;20042;-76
2021/04/10 06:52:36;;;;;;;18.23;10.63;;;;;;;6.59;100.00;97449.22;5000924;28;20046;-76
2021/04/10 06:55:21;;;;;;;20.48;11.07;;;;;;;6.66;100.00;97460.38;5000554;28;20457;-77
2021/04/10 06:57:57;;;;;;;18.42;10.30;;;;;;;6.65;100.00;97471.44;5003674;28;20493;-77
2021/04/10 07:00:25;;;;;;;22.25;11.48;;;;;;;6.82;100.00;97463.63;5014780;28;20072;-76
2021/04/10 07:02:52;;;;;;;23.02;11.63;;;;;;;6.69;100.00;97461.69;5001856;28;20500;-77
2021/04/10 07:05:22;;;;;;;24.77;11.82;;;;;;;6.65;100.00;97460.69;5005321;28;20065;-76
2021/04/10 07:07:50;;;;;;;20.80;11.55;;;;;;;6.75;100.00;97463.22;5005398;28;20275;-76
2021/04/10 07:10:17;;;;;;;21.80;11.88;;;;;;;6.77;100.00;97471.78;4992370;28;20437;-76
2021/04/10 07:12:46;;;;;;;21.60;10.95;;;;;;;6.72;100.00;97467.28;5005311;28;20053;-76
2021/04/10 07:15:14;;;;;;;21.27;11.70;;;;;;;6.81;100.00;97464.75;4991665;28;20058;-76
2021/04/10 07:17:41;;;;;;;27.20;13.27;;;;;;;6.91;100.00;97467.25;5005830;28;20049;-76
2021/04/10 07:20:30;;;;;;;25.45;12.25;;;;;;;7.08;100.00;97462.09;5037853;28;20103;-76
2021/04/10 07:23:09;;;;;;;20.75;11.38;;;;;;;7.08;100.00;97472.88;5008378;28;20049;-78
2021/04/10 07:25:40;;;;;;;24.05;12.35;;;;;;;7.04;100.00;97485.31;5026560;28;20058;-76
2021/04/10 07:28:31;;;;;;;20.73;12.20;;;;;;;7.01;100.00;97480.53;5039813;28;20468;-77
2021/04/10 07:31:02;;;;;;;23.02;12.40;;;;;;;7.18;100.00;97485.34;5007395;28;20045;-75
2021/04/10 07:33:31;;;;;;;21.30;11.98;;;;;;;7.28;100.00;97474.38;5024964;28;20524;-76
2021/04/10 07:36:00;;;;;;;22.25;11.63;;;;;;;7.29;100.00;97478.69;5007474;28;20493;-76
2021/04/10 07:38:30;;;;;;;19.65;12.15;;;;;;;7.41;100.00;97470.91;5023737;28;20528;-75
2021/04/10 07:40:57;;;;;;;20.42;11.82;;;;;;;7.52;100.00;97475.81;5022884;28;20064;-76
2021/04/10 07:43:35;;;;;;;24.02;12.43;;;;;;;7.17;100.00;97478.38;5024225;28;20103;-75
2021/04/10 07:46:22;;;;;;;19.90;11.77;;;;;;;7.16;100.00;97476.75;5035964;28;20037;-75
2021/04/10 07:49:09;;;;;;;20.23;12.23;;;;;;;7.08;100.00;97499.78;4998834;28;20092;-75
2021/04/10 07:51:55;;;;;;;21.50;11.45;;;;;;;7.01;100.00;97498.56;5019162;28;20231;-76
2021/04/10 07:54:25;;;;;;;;;;;;;;;7.01;100.00;97494.00;5008284;28;20278;-76
2021/04/10 07:57:08;;;;;;;21.00;11.50;;;;;;;7.25;100.00;97502.69;5001216;28;20335;-76
2021/04/10 07:59:50;;;;;;;20.02;11.25;;;;;;;7.50;100.00;97512.22;5020908;28;20038;-78
2021/04/10 08:02:18;;;;;;;20.48;11.05;;;;;;;7.62;100.00;97514.41;5043958;22;20123;-76
2021/04/10 08:04:58;;;;;;;23.20;12.02;;;;;;;7.71;100.00;97510.75;5035512;28;20113;-76
2021/04/10 08:07:31;;;;;;;20.52;11.07;;;;;;;7.78;100.00;97510.34;5025851;28;20065;-77
2021/04/10 08:10:08;;;;;;;20.30;11.55;;;;;;;7.80;100.00;97514.34;5030979;28;20118;-75
2021/04/10 08:12:38;;;;;;;21.42;11.13;;;;;;;7.92;100.00;97508.44;5020362;28;20126;-76
2021/04/10 08:15:06;;;;;;;19.70;10.95;;;;;;;8.04;100.00;97514.94;5031557;28;20049;-75
2021/04/10 08:17:41;;;;;;;22.13;11.15;;;;;;;8.18;100.00;97519.50;5039741;28;20548;-75
2021/04/10 08:20:27;;;;;;;20.43;11.63;;;;;;;8.13;100.00;97512.31;5022950;28;20068;-77
2021/04/10 08:23:13;;;;;;;;;;;;;;;8.31;100.00;97514.09;5041874;28;20064;-75
2021/04/10 08:25:40;;;;;;;20.33;11.35;;;;;;;8.24;100.00;97523.69;5037842;28;19947;-75
2021/04/10 08:28:06;;;;;;;20.30;11.85;;;;;;;7.98;100.00;97534.19;5038518;28;20051;-76
2021/04/10 08:30:50;;;;;;;20.73;11.93;;;;;;;7.69;100.00;97539.09;5027037;28;20114;-76
2021/04/10 08:33:16;;;;;;;19.73;12.25;;;;;;;7.88;100.00;97531.69;5018928;28;20326;-75
2021/04/10 08:35:43;;;;;;;23.13;12.38;;;;;;;8.03;100.00;97537.59;5017897;28;20602;-77
2021/04/10 08:38:10;;;;;;;22.17;12.32;;;;;;;8.18;100.00;97539.97;5017429;28;20061;-75
2021/04/10 08:40:37;;;;;;;20.13;12.10;;;;;;;8.20;100.00;97539.69;5012519;28;20050;-77
2021/04/10 08:43:04;;;;;;;20.55;11.77;;;;;;;8.23;100.00;97539.09;5012350;28;20539;-76
2021/04/10 08:45:33;;;;;;;20.48;12.13;;;;;;;8.22;100.00;97548.25;5013092;28;20050;-76
2021/04/10 08:48:02;;;;;;;23.75;11.68;;;;;;;7.95;100.00;97548.25;5013834;28;20065;-78
2021/04/10 08:50:38;;;;;;;20.05;11.85;;;;;;;7.53;100.00;97550.16;5022194;28;20442;-75
2021/04/10 08:53:09;;;;;;;23.15;12.25;;;;;;;7.75;100.00;97556.75;5018116;28;20049;-76
2021/04/10 08:55:38;;;;;;;28.35;14.40;;;;;;;7.61;100.00;97547.84;5011880;28;20056;-76
2021/04/10 08:58:30;;;;;;;23.88;12.73;;;;;;;7.98;100.00;97544.97;5011367;28;20045;-75
2021/04/10 09:00:58;;;;;;;25.35;12.77;;;;;;;8.08;100.00;97552.84;5021063;28;20076;-77
2021/04/10 09:03:50;;;;;;;22.38;13.00;;;;;;;8.27;100.00;97553.56;5030285;28;20041;-77
2021/04/10 09:06:37;;;;;;;17.23;11.90;;;;;;;7.84;100.00;97550.38;5029231;28;20119;-78
2021/04/10 09:09:15;;;;;;;18.83;11.63;;;;;;;8.46;100.00;97559.66;5031342;28;20489;-75
2021/04/10 09:11:43;;;;;;;27.38;12.85;;;;;;;8.42;100.00;97555.16;5030861;28;20133;-76
2021/04/10 09:14:13;;;;;;;22.30;11.90;;;;;;;8.35;100.00;97550.16;5030051;28;20041;-76
2021/04/10 09:16:42;;;;;;;21.50;12.25;;;;;;;8.63;100.00;97565.19;5031877;28;20116;-76
2021/04/10 09:19:24;;;;;;;23.50;11.77;;;;;;;8.94;100.00;97561.81;5032941;28;20041;-76
2021/04/10 09:21:59;;;;;;;19.35;11.38;;;;;;;9.29;100.00;97560.97;5031188;28;20060;-75
2021/04/10 09:24:42;;;;;;;25.48;12.68;;;;;;;8.62;100.00;97569.00;5024916;28;20045;-76
2021/04/10 09:27:17;;;;;;;23.15;12.65;;;;;;;8.90;100.00;97569.72;5026443;28;20041;-76
2021/04/10 09:29:57;;;;;;;19.35;12.27;;;;;;;8.86;100.00;97571.44;5031745;28;20088;-77
2021/04/10 09:32:38;;;;;;;22.50;12.73;;;;;;;9.13;100.00;97582.16;5032401;28;20045;-78
2021/04/10 09:35:19;;;;;;;30.23;11.93;;;;;;;9.62;100.00;97574.97;5037777;28;20447;-76
2021/04/10 09:37:47;;;;;;;26.95;13.45;;;;;;;9.63;100.00;97576.56;5032596;28;20041;-76
2021/04/10 09:40:23;;;;;;;17.83;10.88;;;;;;;9.54;100.00;97589.25;5026385;28;20060;-77
2021/04/10 09:42:52;;;;;;;21.35;11.68;;;;;;;9.34;100.00;97579.75;5012134;28;20128;-77
2021/04/10 09:45:24;;;;;;;20.90;12.38;;;;;;;9.42;100.00;97603.28;5008241;28;20069;-75
2021/04/10 09:48:02;;;;;;;27.17;14.30;;;;;;;9.37;100.00;97587.22;5008982;28;20465;-78
2021/04/10 09:50:34;;;;;;;44.95;18.67;;;;;;;9.31;100.00;97594.66;5007280;28;20056;-76
2021/04/10 09:53:09;;;;;;;25.10;13.65;;;;;;;9.37;100.00;97595.31;5008877;28;20046;-76
2021/04/10 09:55:42;;;;;;;23.30;11.87;;;;;;;9.54;100.00;97600.03;5009671;28;20046;-76
2021/04/10 09:58:10;;;;;;;25.50;13.05;;;;;;;9.43;100.00;97599.50;5007722;28;20057;-77
2021/04/10 10:00:43;;;;;;;27.83;13.95;;;;;;;9.83;100.00;97609.28;5008327;28;20212;-77
2021/04/10 10:03:11;;;;;;;28.92;14.85;;;;;;;10.10;100.00;97594.75;5009307;28;20050;-77
2021/04/10 10:05:42;;;;;;;20.98;12.23;;;;;;;10.12;100.00;97606.09;5008142;28;20050;-78
2021/04/10 10:08:09;;;;;;;21.85;11.27;;;;;;;9.90;100.00;97598.03;5008310;28;20115;-77
2021/04/10 10:10:41;;;;;;;20.52;12.55;;;;;;;10.12;100.00;97591.75;5012048;28;20045;-77
2021/04/10 10:13:10;;;;;;;21.77;13.20;;;;;;;10.51;100.00;97599.84;5009634;28;20046;-78
2021/04/10 10:15:37;;;;;;;20.40;11.07;;;;;;;9.93;100.00;97600.13;4992594;28;20452;-77
2021/04/10 10:18:14;;;;;;;23.27;11.52;;;;;;;10.13;100.00;97609.59;5011882;28;20547;-77
2021/04/10 10:21:02;;;;;;;21.42;14.43;;;;;;;9.83;100.00;97613.91;5012430;28;20092;-77
2021/04/10 10:23:41;;;;;;;18.27;12.80;;;;;;;9.71;100.00;97617.16;5008665;28;20172;-76
2021/04/10 10:26:09;;;;;;;23.15;13.02;;;;;;;9.86;100.00;97611.34;5009738;28;20148;-78
2021/04/10 10:28:38;;;;;;;22.23;12.95;;;;;;;9.70;100.00;97617.47;5010688;28;20050;-77
2021/04/10 10:31:18;;;;;;;30.52;16.80;;;;;;;9.72;100.00;97617.97;5001496;28;20099;-76
2021/04/10 10:33:45;;;;;;;21.63;13.57;;;;;;;9.55;100.00;97629.44;5030994;28;20516;-77
2021/04/10 10:36:13;;;;;;;22.13;13.90;;;;;;;9.04;100.00;97616.38;5028346;28;20103;-77
2021/04/10 10:38:42;;;;;;;23.75;13.68;;;;;;;9.30;100.00;97617.38;5031606;28;20045;-77
2021/04/10 10:41:10;;;;;;;45.22;22.30;;;;;;;9.42;100.00;97622.22;5029737;28;20049;-76
2021/04/10 10:43:37;;;;;;;30.05;16.15;;;;;;;9.40;100.00;97627.13;5030767;28;20045;-76
2021/04/10 10:46:06;;;;;;;36.25;16.33;;;;;;;9.21;100.00;97621.13;5031283;28;20504;-76
2021/04/10 10:48:42;;;;;;;29.67;15.30;;;;;;;8.87;100.00;97618.94;5030007;28;20691;-75
2021/04/10 10:51:14;;;;;;;23.70;14.85;;;;;;;8.69;100.00;97630.66;5022471;28;20045;-77
2021/04/10 10:53:41;;;;;;;28.92;16.73;;;;;;;8.60;100.00;97629.75;5011529;28;20042;-78
2021/04/10 10:56:29;;;;;;;26.92;17.30;;;;;;;8.68;100.00;97629.84;5011189;28;20050;-77
2021/04/10 10:59:00;;;;;;;43.35;23.55;;;;;;;8.80;100.00;97633.94;5016014;28;20045;-77
2021/04/10 11:01:33;;;;;;;27.95;16.52;;;;;;;8.42;100.00;97639.56;5026218;28;20116;-77
2021/04/10 11:04:10;;;;;;;27.00;17.55;;;;;;;8.47;100.00;97647.56;5001916;28;20053;-77
2021/04/10 11:06:39;;;;;;;28.73;17.45;;;;;;;8.38;100.00;97646.69;5010882;28;20103;-78
2021/04/10 11:09:13;;;;;;;27.42;17.50;;;;;;;8.29;100.00;97645.75;5013509;28;20046;-78
2021/04/10 11:11:42;;;;;;;32.80;17.85;;;;;;;8.49;100.00;97633.78;5027070;28;20049;-78
2021/04/10 11:14:09;;;;;;;30.30;17.00;;;;;;;8.56;100.00;97644.97;5027768;28;20045;-78
2021/04/10 11:16:42;;;;;;;25.63;17.10;;;;;;;8.64;100.00;97649.66;5028072;28;20049;-79
2021/04/10 11:19:09;;;;;;;27.90;17.52;;;;;;;8.74;100.00;97646.75;5013868;28;20498;-78
2021/04/10 11:21:35;;;;;;;48.17;20.42;;;;;;;8.84;100.00;97651.13;5031534;28;20045;-77
2021/04/10 11:24:04;;;;;;;30.60;17.85;;;;;;;8.73;100.00;97654.03;5029144;28;20128;-78
2021/04/10 11:26:34;;;;;;;27.88;17.85;;;;;;;8.67;100.00;97655.22;5031229;28;20049;-78
2021/04/10 11:29:12;;;;;;;27.73;17.20;;;;;;;8.86;100.00;97654.31;5029672;28;20501;-77
2021/04/10 11:31:38;;;;;;;26.90;16.83;;;;;;;8.93;100.00;97655.47;5034629;28;20049;-78
2021/04/10 11:34:28;;;;;;;30.88;18.05;;;;;;;8.95;100.00;97658.72;5033166;28;20045;-78
2021/04/10 11:36:55;;;;;;;30.73;16.13;;;;;;;8.73;100.00;97651.34;5033699;28;20424;-78
2021/04/10 11:39:22;;;;;;;27.15;16.13;;;;;;;8.64;100.00;97663.16;5035382;28;20053;-78
2021/04/10 11:41:49;;;;;;;24.92;15.77;;;;;;;8.87;100.00;97654.03;5033722;28;20476;-78